sensor_id;sensor_type;location;lat;lon;timestamp;P1;durP1;ratioP1;P2;durP2;ratioP2
19595;SDS011;9945;46.010;8.946;2023-06-14T00:01:18;3.70;;;2.90;;
19595;SDS011;9945;46.010;8.946;2023-06-14T00:03:47;3.00;;;2.80;;
19595;SDS011;9945;46.010;8.946;2023-06-14T00:06:14;3.63;;;3.33;;
19595;SDS011;9945;46.010;8.946;2023-06-14T00:08:42;3.90;;;3.15;;
19595;SDS011;9945;46.010;8.946;2023-06-14T00:11:09;3.35;;;3.15;;
19595;SDS011;9945;46.010;8.946;2023-06-14T00:13:36;4.10;;;3.80;;
19595;SDS011;9945;46.010;8.946;2023-06-14T00:16:03;3.83;;;3.58;;
19595;SDS011;9945;46.010;8.946;2023-06-14T00:18:30;4.35;;;3.90;;
19595;SDS011;9945;46.010;8.946;2023-06-14T00:20:57;4.20;;;3.90;;
19595;SDS011;9945;46.010;8.946;2023-06-14T00:23:24;5.10;;;4.18;;
19595;SDS011;9945;46.010;8.946;2023-06-14T00:25:52;4.15;;;3.85;;
19595;SDS011;9945;46.010;8.946;2023-06-14T00:28:19;5.82;;;4.07;;
19595;SDS011;9945;46.010;8.946;2023-06-14T00:30:46;5.00;;;4.68;;
19595;SDS011;9945;46.010;8.946;2023-06-14T00:33:13;4.32;;;3.95;;
19595;SDS011;9945;46.010;8.946;2023-06-14T00:35:40;4.25;;;3.95;;
19595;SDS011;9945;46.010;8.946;2023-06-14T00:38:07;5.20;;;4.60;;
19595;SDS011;9945;46.010;8.946;2023-06-14T00:40:34;4.50;;;4.10;;
19595;SDS011;9945;46.010;8.946;2023-06-14T00:43:02;5.05;;;4.18;;
19595;SDS011;9945;46.010;8.946;2023-06-14T00:45:29;4.03;;;3.80;;
19595;SDS011;9945;46.010;8.946;2023-06-14T00:48:00;4.88;;;4.40;;
19595;SDS011;9945;46.010;8.946;2023-06-14T00:50:28;4.10;;;3.80;;
19595;SDS011;9945;46.010;8.946;2023-06-14T00:52:57;4.53;;;4.18;;
19595;SDS011;9945;46.010;8.946;2023-06-14T00:55:24;4.65;;;4.25;;
19595;SDS011;9945;46.010;8.946;2023-06-14T00:57:51;4.57;;;3.53;;
19595;SDS011;9945;46.010;8.946;2023-06-14T01:00:22;4.45;;;4.15;;
19595;SDS011;9945;46.010;8.946;2023-06-14T01:02:49;4.10;;;3.80;;
19595;SDS011;9945;46.010;8.946;2023-06-14T01:05:15;4.30;;;4.00;;
19595;SDS011;9945;46.010;8.946;2023-06-14T01:07:46;4.43;;;3.85;;
19595;SDS011;9945;46.010;8.946;2023-06-14T01:10:26;4.45;;;3.80;;
19595;SDS011;9945;46.010;8.946;2023-06-14T01:13:04;6.03;;;4.00;;
19595;SDS011;9945;46.010;8.946;2023-06-14T01:15:38;4.13;;;3.78;;
19595;SDS011;9945;46.010;8.946;2023-06-14T01:18:07;4.15;;;3.85;;
19595;SDS011;9945;46.010;8.946;2023-06-14T01:20:42;5.78;;;4.65;;
19595;SDS011;9945;46.010;8.946;2023-06-14T01:23:11;4.07;;;3.88;;
19595;SDS011;9945;46.010;8.946;2023-06-14T01:25:38;4.88;;;4.00;;
19595;SDS011;9945;46.010;8.946;2023-06-14T01:28:06;4.68;;;3.90;;
19595;SDS011;9945;46.010;8.946;2023-06-14T01:30:35;5.13;;;4.70;;
19595;SDS011;9945;46.010;8.946;2023-06-14T01:33:03;4.57;;;4.28;;
19595;SDS011;9945;46.010;8.946;2023-06-14T01:35:31;6.00;;;5.50;;
19595;SDS011;9945;46.010;8.946;2023-06-14T01:37:58;5.05;;;4.68;;
19595;SDS011;9945;46.010;8.946;2023-06-14T01:40:27;6.60;;;5.55;;
19595;SDS011;9945;46.010;8.946;2023-06-14T01:42:55;10.45;;;4.90;;
19595;SDS011;9945;46.010;8.946;2023-06-14T01:45:22;6.07;;;4.70;;
19595;SDS011;9945;46.010;8.946;2023-06-14T01:47:50;5.38;;;4.88;;
19595;SDS011;9945;46.010;8.946;2023-06-14T01:50:18;5.45;;;4.80;;
19595;SDS011;9945;46.010;8.946;2023-06-14T01:52:45;4.78;;;4.18;;
19595;SDS011;9945;46.010;8.946;2023-06-14T01:55:12;4.60;;;4.30;;
19595;SDS011;9945;46.010;8.946;2023-06-14T01:57:40;5.38;;;4.38;;
19595;SDS011;9945;46.010;8.946;2023-06-14T02:00:07;5.78;;;4.55;;
19595;SDS011;9945;46.010;8.946;2023-06-14T02:02:37;4.68;;;3.70;;
19595;SDS011;9945;46.010;8.946;2023-06-14T02:05:04;4.50;;;4.20;;
19595;SDS011;9945;46.010;8.946;2023-06-14T02:07:32;4.97;;;4.25;;
19595;SDS011;9945;46.010;8.946;2023-06-14T02:09:59;5.47;;;4.95;;
19595;SDS011;9945;46.010;8.946;2023-06-14T02:12:26;5.32;;;4.00;;
19595;SDS011;9945;46.010;8.946;2023-06-14T02:14:54;4.50;;;3.90;;
19595;SDS011;9945;46.010;8.946;2023-06-14T02:17:21;5.50;;;4.05;;
19595;SDS011;9945;46.010;8.946;2023-06-14T02:19:48;5.00;;;4.60;;
19595;SDS011;9945;46.010;8.946;2023-06-14T02:22:15;4.90;;;4.43;;
19595;SDS011;9945;46.010;8.946;2023-06-14T02:24:43;4.32;;;3.70;;
19595;SDS011;9945;46.010;8.946;2023-06-14T02:27:10;4.05;;;3.63;;
19595;SDS011;9945;46.010;8.946;2023-06-14T02:29:37;4.40;;;4.10;;
19595;SDS011;9945;46.010;8.946;2023-06-14T02:32:06;4.78;;;4.47;;
19595;SDS011;9945;46.010;8.946;2023-06-14T02:34:33;4.90;;;4.50;;
19595;SDS011;9945;46.010;8.946;2023-06-14T02:37:00;4.25;;;3.90;;
19595;SDS011;9945;46.010;8.946;2023-06-14T02:39:28;4.85;;;3.92;;
19595;SDS011;9945;46.010;8.946;2023-06-14T02:41:55;4.03;;;3.72;;
19595;SDS011;9945;46.010;8.946;2023-06-14T02:44:23;4.50;;;4.00;;
19595;SDS011;9945;46.010;8.946;2023-06-14T02:46:52;4.80;;;4.50;;
19595;SDS011;9945;46.010;8.946;2023-06-14T02:49:20;4.68;;;4.28;;
19595;SDS011;9945;46.010;8.946;2023-06-14T02:51:47;5.30;;;4.50;;
19595;SDS011;9945;46.010;8.946;2023-06-14T02:54:14;4.80;;;4.40;;
19595;SDS011;9945;46.010;8.946;2023-06-14T02:56:41;5.85;;;5.18;;
19595;SDS011;9945;46.010;8.946;2023-06-14T02:59:08;5.72;;;5.28;;
19595;SDS011;9945;46.010;8.946;2023-06-14T03:01:35;5.93;;;5.43;;
19595;SDS011;9945;46.010;8.946;2023-06-14T03:04:06;5.32;;;4.93;;
19595;SDS011;9945;46.010;8.946;2023-06-14T03:06:34;5.32;;;4.93;;
19595;SDS011;9945;46.010;8.946;2023-06-14T03:09:01;5.50;;;4.40;;
19595;SDS011;9945;46.010;8.946;2023-06-14T03:11:30;5.32;;;4.97;;
19595;SDS011;9945;46.010;8.946;2023-06-14T03:13:57;8.55;;;4.70;;
19595;SDS011;9945;46.010;8.946;2023-06-14T03:16:24;5.03;;;4.63;;
19595;SDS011;9945;46.010;8.946;2023-06-14T03:18:54;5.65;;;4.25;;
19595;SDS011;9945;46.010;8.946;2023-06-14T03:21:21;4.68;;;4.25;;
19595;SDS011;9945;46.010;8.946;2023-06-14T03:23:49;5.13;;;4.72;;
19595;SDS011;9945;46.010;8.946;2023-06-14T03:26:16;5.80;;;4.45;;
19595;SDS011;9945;46.010;8.946;2023-06-14T03:28:44;4.85;;;3.92;;
19595;SDS011;9945;46.010;8.946;2023-06-14T03:31:11;8.30;;;4.63;;
19595;SDS011;9945;46.010;8.946;2023-06-14T03:33:38;4.70;;;4.30;;
19595;SDS011;9945;46.010;8.946;2023-06-14T03:36:05;4.55;;;4.25;;
19595;SDS011;9945;46.010;8.946;2023-06-14T03:38:33;6.38;;;4.90;;
19595;SDS011;9945;46.010;8.946;2023-06-14T03:41:01;5.15;;;4.75;;
19595;SDS011;9945;46.010;8.946;2023-06-14T03:43:28;5.55;;;4.82;;
19595;SDS011;9945;46.010;8.946;2023-06-14T03:45:55;4.80;;;4.28;;
19595;SDS011;9945;46.010;8.946;2023-06-14T03:48:22;5.18;;;4.60;;
19595;SDS011;9945;46.010;8.946;2023-06-14T03:50:49;8.25;;;5.20;;
19595;SDS011;9945;46.010;8.946;2023-06-14T03:53:16;6.15;;;4.88;;
19595;SDS011;9945;46.010;8.946;2023-06-14T03:55:42;4.07;;;3.88;;
19595;SDS011;9945;46.010;8.946;2023-06-14T03:58:11;10.07;;;4.72;;
19595;SDS011;9945;46.010;8.946;2023-06-14T04:00:38;5.28;;;4.05;;
19595;SDS011;9945;46.010;8.946;2023-06-14T04:03:05;6.78;;;4.45;;
19595;SDS011;9945;46.010;8.946;2023-06-14T04:05:32;5.82;;;4.43;;
19595;SDS011;9945;46.010;8.946;2023-06-14T04:07:58;5.25;;;4.75;;
19595;SDS011;9945;46.010;8.946;2023-06-14T04:10:26;6.78;;;4.70;;
19595;SDS011;9945;46.010;8.946;2023-06-14T04:12:53;5.68;;;5.28;;
19595;SDS011;9945;46.010;8.946;2023-06-14T04:15:21;5.03;;;4.68;;
19595;SDS011;9945;46.010;8.946;2023-06-14T04:17:48;4.85;;;4.55;;
19595;SDS011;9945;46.010;8.946;2023-06-14T04:20:15;5.22;;;4.72;;
19595;SDS011;9945;46.010;8.946;2023-06-14T04:22:42;4.95;;;4.57;;
19595;SDS011;9945;46.010;8.946;2023-06-14T04:25:09;5.03;;;4.57;;
19595;SDS011;9945;46.010;8.946;2023-06-14T04:27:37;5.00;;;4.57;;
19595;SDS011;9945;46.010;8.946;2023-06-14T04:30:05;5.25;;;4.85;;
19595;SDS011;9945;46.010;8.946;2023-06-14T04:32:34;4.60;;;4.30;;
19595;SDS011;9945;46.010;8.946;2023-06-14T04:35:05;5.25;;;4.85;;
19595;SDS011;9945;46.010;8.946;2023-06-14T04:37:32;5.10;;;4.22;;
19595;SDS011;9945;46.010;8.946;2023-06-14T04:39:59;4.40;;;4.00;;
19595;SDS011;9945;46.010;8.946;2023-06-14T04:42:30;5.03;;;4.07;;
19595;SDS011;9945;46.010;8.946;2023-06-14T04:44:57;4.20;;;3.90;;
19595;SDS011;9945;46.010;8.946;2023-06-14T04:47:24;4.55;;;4.10;;
19595;SDS011;9945;46.010;8.946;2023-06-14T04:49:56;6.88;;;4.43;;
19595;SDS011;9945;46.010;8.946;2023-06-14T04:52:25;4.13;;;3.83;;
19595;SDS011;9945;46.010;8.946;2023-06-14T04:54:54;5.30;;;4.10;;
19595;SDS011;9945;46.010;8.946;2023-06-14T04:57:21;3.90;;;3.60;;
19595;SDS011;9945;46.010;8.946;2023-06-14T04:59:50;6.20;;;4.75;;
19595;SDS011;9945;46.010;8.946;2023-06-14T05:02:20;4.25;;;3.95;;
19595;SDS011;9945;46.010;8.946;2023-06-14T05:04:48;4.05;;;3.67;;
19595;SDS011;9945;46.010;8.946;2023-06-14T05:07:17;4.57;;;4.28;;
19595;SDS011;9945;46.010;8.946;2023-06-14T05:09:44;3.83;;;3.53;;
19595;SDS011;9945;46.010;8.946;2023-06-14T05:12:11;4.18;;;3.85;;
19595;SDS011;9945;46.010;8.946;2023-06-14T05:14:38;4.90;;;4.57;;
19595;SDS011;9945;46.010;8.946;2023-06-14T05:17:05;4.63;;;4.22;;
19595;SDS011;9945;46.010;8.946;2023-06-14T05:19:32;5.30;;;4.32;;
19595;SDS011;9945;46.010;8.946;2023-06-14T05:21:59;8.07;;;5.25;;
19595;SDS011;9945;46.010;8.946;2023-06-14T05:24:29;7.15;;;5.10;;
19595;SDS011;9945;46.010;8.946;2023-06-14T05:26:57;4.72;;;4.43;;
19595;SDS011;9945;46.010;8.946;2023-06-14T05:29:24;4.40;;;4.10;;
19595;SDS011;9945;46.010;8.946;2023-06-14T05:31:51;4.38;;;4.07;;
19595;SDS011;9945;46.010;8.946;2023-06-14T05:34:18;6.47;;;4.70;;
19595;SDS011;9945;46.010;8.946;2023-06-14T05:36:44;6.85;;;5.30;;
19595;SDS011;9945;46.010;8.946;2023-06-14T05:39:11;4.13;;;3.92;;
19595;SDS011;9945;46.010;8.946;2023-06-14T05:41:41;7.63;;;4.88;;
19595;SDS011;9945;46.010;8.946;2023-06-14T05:44:08;5.55;;;5.05;;
19595;SDS011;9945;46.010;8.946;2023-06-14T05:46:35;5.95;;;5.35;;
19595;SDS011;9945;46.010;8.946;2023-06-14T05:49:02;6.95;;;5.20;;
19595;SDS011;9945;46.010;8.946;2023-06-14T05:51:29;5.20;;;4.80;;
19595;SDS011;9945;46.010;8.946;2023-06-14T05:53:55;4.95;;;4.65;;
19595;SDS011;9945;46.010;8.946;2023-06-14T05:56:22;5.25;;;4.80;;
19595;SDS011;9945;46.010;8.946;2023-06-14T05:58:51;4.85;;;4.43;;
19595;SDS011;9945;46.010;8.946;2023-06-14T06:01:18;7.00;;;5.00;;
19595;SDS011;9945;46.010;8.946;2023-06-14T06:03:45;5.30;;;4.88;;
19595;SDS011;9945;46.010;8.946;2023-06-14T06:06:13;6.88;;;5.38;;
19595;SDS011;9945;46.010;8.946;2023-06-14T06:08:40;5.28;;;4.85;;
19595;SDS011;9945;46.010;8.946;2023-06-14T06:11:07;5.13;;;4.63;;
19595;SDS011;9945;46.010;8.946;2023-06-14T06:13:34;10.07;;;5.28;;
19595;SDS011;9945;46.010;8.946;2023-06-14T06:16:03;4.32;;;3.72;;
19595;SDS011;9945;46.010;8.946;2023-06-14T06:18:30;4.68;;;4.22;;
19595;SDS011;9945;46.010;8.946;2023-06-14T06:20:57;5.05;;;4.53;;
19595;SDS011;9945;46.010;8.946;2023-06-14T06:23:24;5.28;;;4.93;;
19595;SDS011;9945;46.010;8.946;2023-06-14T06:25:51;5.05;;;4.70;;
19595;SDS011;9945;46.010;8.946;2023-06-14T06:28:18;7.88;;;4.70;;
19595;SDS011;9945;46.010;8.946;2023-06-14T06:30:45;4.68;;;4.28;;
19595;SDS011;9945;46.010;8.946;2023-06-14T06:33:13;4.95;;;4.50;;
19595;SDS011;9945;46.010;8.946;2023-06-14T06:35:40;5.50;;;5.00;;
19595;SDS011;9945;46.010;8.946;2023-06-14T06:38:08;8.48;;;5.82;;
19595;SDS011;9945;46.010;8.946;2023-06-14T06:40:35;8.25;;;6.25;;
19595;SDS011;9945;46.010;8.946;2023-06-14T06:43:02;6.40;;;5.90;;
19595;SDS011;9945;46.010;8.946;2023-06-14T06:45:29;6.40;;;5.90;;
19595;SDS011;9945;46.010;8.946;2023-06-14T06:47:56;5.40;;;4.90;;
19595;SDS011;9945;46.010;8.946;2023-06-14T06:50:24;5.97;;;5.47;;
19595;SDS011;9945;46.010;8.946;2023-06-14T06:52:51;8.27;;;6.47;;
19595;SDS011;9945;46.010;8.946;2023-06-14T06:55:18;6.90;;;6.30;;
19595;SDS011;9945;46.010;8.946;2023-06-14T06:57:45;6.90;;;6.25;;
19595;SDS011;9945;46.010;8.946;2023-06-14T07:00:12;7.13;;;6.28;;
19595;SDS011;9945;46.010;8.946;2023-06-14T07:02:39;6.10;;;5.60;;
19595;SDS011;9945;46.010;8.946;2023-06-14T07:05:06;6.30;;;5.70;;
19595;SDS011;9945;46.010;8.946;2023-06-14T07:07:34;6.22;;;5.15;;
19595;SDS011;9945;46.010;8.946;2023-06-14T07:10:01;5.38;;;4.90;;
19595;SDS011;9945;46.010;8.946;2023-06-14T07:12:29;5.53;;;5.13;;
19595;SDS011;9945;46.010;8.946;2023-06-14T07:14:58;6.03;;;5.63;;
19595;SDS011;9945;46.010;8.946;2023-06-14T07:17:25;5.20;;;4.88;;
19595;SDS011;9945;46.010;8.946;2023-06-14T07:19:52;5.60;;;5.18;;
19595;SDS011;9945;46.010;8.946;2023-06-14T07:22:19;7.10;;;4.72;;
19595;SDS011;9945;46.010;8.946;2023-06-14T07:24:47;6.20;;;5.70;;
19595;SDS011;9945;46.010;8.946;2023-06-14T07:27:14;6.00;;;5.45;;
19595;SDS011;9945;46.010;8.946;2023-06-14T07:29:41;9.07;;;6.38;;
19595;SDS011;9945;46.010;8.946;2023-06-14T07:32:08;8.68;;;6.63;;
19595;SDS011;9945;46.010;8.946;2023-06-14T07:34:35;6.72;;;5.38;;
19595;SDS011;9945;46.010;8.946;2023-06-14T07:37:02;6.43;;;5.93;;
19595;SDS011;9945;46.010;8.946;2023-06-14T07:39:29;7.05;;;6.20;;
19595;SDS011;9945;46.010;8.946;2023-06-14T07:41:57;5.47;;;5.07;;
19595;SDS011;9945;46.010;8.946;2023-06-14T07:44:24;5.63;;;5.13;;
19595;SDS011;9945;46.010;8.946;2023-06-14T07:46:51;6.50;;;5.63;;
19595;SDS011;9945;46.010;8.946;2023-06-14T07:49:18;5.95;;;5.45;;
19595;SDS011;9945;46.010;8.946;2023-06-14T07:51:45;5.22;;;4.78;;
19595;SDS011;9945;46.010;8.946;2023-06-14T07:54:13;6.97;;;5.55;;
19595;SDS011;9945;46.010;8.946;2023-06-14T07:56:41;5.47;;;5.07;;
19595;SDS011;9945;46.010;8.946;2023-06-14T07:59:09;6.45;;;5.18;;
19595;SDS011;9945;46.010;8.946;2023-06-14T08:01:36;5.38;;;4.88;;
19595;SDS011;9945;46.010;8.946;2023-06-14T08:04:04;7.28;;;5.40;;
19595;SDS011;9945;46.010;8.946;2023-06-14T08:06:31;5.25;;;4.85;;
19595;SDS011;9945;46.010;8.946;2023-06-14T08:08:59;5.32;;;4.82;;
19595;SDS011;9945;46.010;8.946;2023-06-14T08:11:26;5.10;;;4.80;;
19595;SDS011;9945;46.010;8.946;2023-06-14T08:13:53;5.63;;;5.00;;
19595;SDS011;9945;46.010;8.946;2023-06-14T08:16:21;6.78;;;6.18;;
19595;SDS011;9945;46.010;8.946;2023-06-14T08:18:48;7.43;;;6.80;;
19595;SDS011;9945;46.010;8.946;2023-06-14T08:21:15;5.32;;;4.82;;
19595;SDS011;9945;46.010;8.946;2023-06-14T08:23:43;8.07;;;6.32;;
19595;SDS011;9945;46.010;8.946;2023-06-14T08:26:10;5.43;;;5.05;;
19595;SDS011;9945;46.010;8.946;2023-06-14T08:28:37;6.38;;;5.93;;
19595;SDS011;9945;46.010;8.946;2023-06-14T08:31:03;8.43;;;5.38;;
19595;SDS011;9945;46.010;8.946;2023-06-14T08:33:32;7.82;;;5.90;;
19595;SDS011;9945;46.010;8.946;2023-06-14T08:35:59;4.60;;;4.20;;
19595;SDS011;9945;46.010;8.946;2023-06-14T08:38:26;5.55;;;5.15;;
19595;SDS011;9945;46.010;8.946;2023-06-14T08:40:53;5.10;;;4.60;;
19595;SDS011;9945;46.010;8.946;2023-06-14T08:43:23;5.40;;;4.53;;
19595;SDS011;9945;46.010;8.946;2023-06-14T08:45:50;5.32;;;4.88;;
19595;SDS011;9945;46.010;8.946;2023-06-14T08:48:24;4.30;;;3.90;;
19595;SDS011;9945;46.010;8.946;2023-06-14T08:50:55;6.18;;;4.07;;
19595;SDS011;9945;46.010;8.946;2023-06-14T08:53:26;3.88;;;3.58;;
19595;SDS011;9945;46.010;8.946;2023-06-14T08:55:57;4.43;;;4.03;;
19595;SDS011;9945;46.010;8.946;2023-06-14T08:58:27;4.57;;;4.28;;
19595;SDS011;9945;46.010;8.946;2023-06-14T09:00:56;4.38;;;3.40;;
19595;SDS011;9945;46.010;8.946;2023-06-14T09:03:23;4.25;;;3.95;;
19595;SDS011;9945;46.010;8.946;2023-06-14T09:05:56;4.40;;;3.65;;
19595;SDS011;9945;46.010;8.946;2023-06-14T09:08:25;3.50;;;3.00;;
19595;SDS011;9945;46.010;8.946;2023-06-14T09:10:55;2.83;;;2.63;;
19595;SDS011;9945;46.010;8.946;2023-06-14T09:13:22;2.55;;;2.45;;
19595;SDS011;9945;46.010;8.946;2023-06-14T09:15:49;2.92;;;2.70;;
19595;SDS011;9945;46.010;8.946;2023-06-14T09:18:17;2.38;;;2.28;;
19595;SDS011;9945;46.010;8.946;2023-06-14T09:20:45;2.65;;;2.45;;
19595;SDS011;9945;46.010;8.946;2023-06-14T09:23:14;2.67;;;2.50;;
19595;SDS011;9945;46.010;8.946;2023-06-14T09:25:47;2.25;;;2.15;;
19595;SDS011;9945;46.010;8.946;2023-06-14T09:28:14;4.20;;;2.75;;
19595;SDS011;9945;46.010;8.946;2023-06-14T09:30:41;2.50;;;2.30;;
19595;SDS011;9945;46.010;8.946;2023-06-14T09:33:07;3.15;;;2.90;;
19595;SDS011;9945;46.010;8.946;2023-06-14T09:35:34;2.30;;;2.20;;
19595;SDS011;9945;46.010;8.946;2023-06-14T09:38:02;2.25;;;2.15;;
19595;SDS011;9945;46.010;8.946;2023-06-14T09:40:30;2.28;;;2.17;;
19595;SDS011;9945;46.010;8.946;2023-06-14T09:43:00;3.10;;;2.88;;
19595;SDS011;9945;46.010;8.946;2023-06-14T09:45:29;2.58;;;2.40;;
19595;SDS011;9945;46.010;8.946;2023-06-14T09:47:56;3.22;;;2.47;;
19595;SDS011;9945;46.010;8.946;2023-06-14T09:50:24;2.58;;;2.38;;
19595;SDS011;9945;46.010;8.946;2023-06-14T09:52:52;2.70;;;2.50;;
19595;SDS011;9945;46.010;8.946;2023-06-14T09:55:24;2.95;;;2.28;;
19595;SDS011;9945;46.010;8.946;2023-06-14T09:57:56;4.50;;;2.28;;
19595;SDS011;9945;46.010;8.946;2023-06-14T10:00:24;2.42;;;2.30;;
19595;SDS011;9945;46.010;8.946;2023-06-14T10:02:53;2.30;;;2.20;;
19595;SDS011;9945;46.010;8.946;2023-06-14T10:05:26;2.33;;;2.22;;
19595;SDS011;9945;46.010;8.946;2023-06-14T10:07:55;2.20;;;2.10;;
19595;SDS011;9945;46.010;8.946;2023-06-14T10:10:26;10.60;;;2.72;;
19595;SDS011;9945;46.010;8.946;2023-06-14T10:12:53;2.45;;;2.35;;
19595;SDS011;9945;46.010;8.946;2023-06-14T10:15:23;2.08;;;1.98;;
19595;SDS011;9945;46.010;8.946;2023-06-14T10:17:59;2.42;;;2.33;;
19595;SDS011;9945;46.010;8.946;2023-06-14T10:20:33;2.15;;;2.05;;
19595;SDS011;9945;46.010;8.946;2023-06-14T10:23:07;4.20;;;2.40;;
19595;SDS011;9945;46.010;8.946;2023-06-14T10:25:38;4.85;;;1.98;;
19595;SDS011;9945;46.010;8.946;2023-06-14T10:28:17;2.80;;;1.92;;
19595;SDS011;9945;46.010;8.946;2023-06-14T10:33:35;2.03;;;1.92;;
19595;SDS011;9945;46.010;8.946;2023-06-14T10:36:08;5.05;;;2.25;;
19595;SDS011;9945;46.010;8.946;2023-06-14T10:38:36;2.15;;;2.05;;
19595;SDS011;9945;46.010;8.946;2023-06-14T10:41:05;2.55;;;2.35;;
19595;SDS011;9945;46.010;8.946;2023-06-14T10:43:33;2.92;;;2.67;;
19595;SDS011;9945;46.010;8.946;2023-06-14T10:48:48;1.80;;;1.80;;
19595;SDS011;9945;46.010;8.946;2023-06-14T10:51:18;2.20;;;2.10;;
19595;SDS011;9945;46.010;8.946;2023-06-14T10:53:49;2.90;;;1.90;;
19595;SDS011;9945;46.010;8.946;2023-06-14T10:56:23;2.10;;;2.00;;
19595;SDS011;9945;46.010;8.946;2023-06-14T10:58:53;2.20;;;2.10;;
19595;SDS011;9945;46.010;8.946;2023-06-14T11:01:27;2.33;;;2.10;;
19595;SDS011;9945;46.010;8.946;2023-06-14T11:04:06;2.83;;;2.30;;
19595;SDS011;9945;46.010;8.946;2023-06-14T11:09:21;4.53;;;2.22;;
19595;SDS011;9945;46.010;8.946;2023-06-14T11:12:11;2.38;;;2.17;;
19595;SDS011;9945;46.010;8.946;2023-06-14T11:14:39;2.95;;;2.22;;
19595;SDS011;9945;46.010;8.946;2023-06-14T11:17:07;2.40;;;2.30;;
19595;SDS011;9945;46.010;8.946;2023-06-14T11:19:34;2.60;;;2.40;;
19595;SDS011;9945;46.010;8.946;2023-06-14T11:22:01;2.13;;;2.03;;
19595;SDS011;9945;46.010;8.946;2023-06-14T11:24:28;3.85;;;2.13;;
19595;SDS011;9945;46.010;8.946;2023-06-14T11:26:55;2.38;;;2.20;;
19595;SDS011;9945;46.010;8.946;2023-06-14T11:29:22;2.15;;;1.98;;
19595;SDS011;9945;46.010;8.946;2023-06-14T11:31:50;2.88;;;2.53;;
19595;SDS011;9945;46.010;8.946;2023-06-14T11:34:18;2.28;;;1.95;;
19595;SDS011;9945;46.010;8.946;2023-06-14T11:36:45;2.45;;;1.95;;
19595;SDS011;9945;46.010;8.946;2023-06-14T11:39:12;2.30;;;2.20;;
19595;SDS011;9945;46.010;8.946;2023-06-14T11:41:41;2.88;;;2.67;;
19595;SDS011;9945;46.010;8.946;2023-06-14T11:44:09;2.60;;;2.40;;
19595;SDS011;9945;46.010;8.946;2023-06-14T11:46:36;2.53;;;2.42;;
19595;SDS011;9945;46.010;8.946;2023-06-14T11:49:04;2.50;;;2.30;;
19595;SDS011;9945;46.010;8.946;2023-06-14T11:51:33;2.53;;;2.33;;
19595;SDS011;9945;46.010;8.946;2023-06-14T11:54:01;2.97;;;2.50;;
19595;SDS011;9945;46.010;8.946;2023-06-14T11:56:29;2.25;;;2.15;;
19595;SDS011;9945;46.010;8.946;2023-06-14T11:58:56;3.05;;;2.30;;
19595;SDS011;9945;46.010;8.946;2023-06-14T12:01:23;2.40;;;2.30;;
19595;SDS011;9945;46.010;8.946;2023-06-14T12:03:52;3.42;;;2.70;;
19595;SDS011;9945;46.010;8.946;2023-06-14T12:06:25;2.97;;;2.40;;
19595;SDS011;9945;46.010;8.946;2023-06-14T12:08:56;3.65;;;2.40;;
19595;SDS011;9945;46.010;8.946;2023-06-14T12:11:23;5.18;;;2.60;;
19595;SDS011;9945;46.010;8.946;2023-06-14T12:13:54;3.63;;;2.85;;
19595;SDS011;9945;46.010;8.946;2023-06-14T12:16:29;3.15;;;2.70;;
19595;SDS011;9945;46.010;8.946;2023-06-14T12:18:56;4.15;;;3.00;;
19595;SDS011;9945;46.010;8.946;2023-06-14T12:21:27;3.35;;;2.83;;
19595;SDS011;9945;46.010;8.946;2023-06-14T12:23:54;7.03;;;3.00;;
19595;SDS011;9945;46.010;8.946;2023-06-14T12:26:22;3.35;;;2.90;;
19595;SDS011;9945;46.010;8.946;2023-06-14T12:28:52;3.83;;;3.33;;
19595;SDS011;9945;46.010;8.946;2023-06-14T12:31:19;5.85;;;2.95;;
19595;SDS011;9945;46.010;8.946;2023-06-14T12:33:47;3.17;;;2.90;;
19595;SDS011;9945;46.010;8.946;2023-06-14T12:36:15;4.55;;;2.90;;
19595;SDS011;9945;46.010;8.946;2023-06-14T12:38:42;3.65;;;3.35;;
19595;SDS011;9945;46.010;8.946;2023-06-14T12:41:10;3.53;;;3.30;;
19595;SDS011;9945;46.010;8.946;2023-06-14T12:43:40;3.75;;;3.50;;
19595;SDS011;9945;46.010;8.946;2023-06-14T12:46:07;5.43;;;3.35;;
19595;SDS011;9945;46.010;8.946;2023-06-14T12:48:33;7.93;;;3.50;;
19595;SDS011;9945;46.010;8.946;2023-06-14T12:51:00;4.18;;;3.53;;
19595;SDS011;9945;46.010;8.946;2023-06-14T12:53:27;3.75;;;3.45;;
19595;SDS011;9945;46.010;8.946;2023-06-14T12:55:54;3.38;;;3.17;;
19595;SDS011;9945;46.010;8.946;2023-06-14T12:58:21;3.78;;;3.47;;
19595;SDS011;9945;46.010;8.946;2023-06-14T13:00:50;5.45;;;3.47;;
19595;SDS011;9945;46.010;8.946;2023-06-14T13:03:17;3.92;;;3.63;;
19595;SDS011;9945;46.010;8.946;2023-06-14T13:05:44;6.07;;;3.40;;
19595;SDS011;9945;46.010;8.946;2023-06-14T13:08:11;5.15;;;3.70;;
19595;SDS011;9945;46.010;8.946;2023-06-14T13:10:38;3.90;;;2.80;;
19595;SDS011;9945;46.010;8.946;2023-06-14T13:13:05;4.25;;;3.30;;
19595;SDS011;9945;46.010;8.946;2023-06-14T13:15:33;4.57;;;3.45;;
19595;SDS011;9945;46.010;8.946;2023-06-14T13:18:02;3.70;;;3.40;;
19595;SDS011;9945;46.010;8.946;2023-06-14T13:20:29;5.28;;;3.53;;
19595;SDS011;9945;46.010;8.946;2023-06-14T13:22:56;4.43;;;4.13;;
19595;SDS011;9945;46.010;8.946;2023-06-14T13:25:22;4.88;;;3.75;;
19595;SDS011;9945;46.010;8.946;2023-06-14T13:27:50;6.65;;;4.05;;
19595;SDS011;9945;46.010;8.946;2023-06-14T13:30:16;4.20;;;3.90;;
19595;SDS011;9945;46.010;8.946;2023-06-14T13:32:43;4.40;;;4.00;;
19595;SDS011;9945;46.010;8.946;2023-06-14T13:35:12;4.45;;;4.05;;
19595;SDS011;9945;46.010;8.946;2023-06-14T13:37:39;4.50;;;4.18;;
19595;SDS011;9945;46.010;8.946;2023-06-14T13:40:06;3.78;;;3.53;;
19595;SDS011;9945;46.010;8.946;2023-06-14T13:42:33;4.60;;;4.20;;
19595;SDS011;9945;46.010;8.946;2023-06-14T13:45:01;4.22;;;3.83;;
19595;SDS011;9945;46.010;8.946;2023-06-14T13:47:28;5.25;;;4.00;;
19595;SDS011;9945;46.010;8.946;2023-06-14T13:49:55;3.83;;;3.53;;
19595;SDS011;9945;46.010;8.946;2023-06-14T13:52:23;4.50;;;3.28;;
19595;SDS011;9945;46.010;8.946;2023-06-14T13:54:51;3.35;;;3.15;;
19595;SDS011;9945;46.010;8.946;2023-06-14T13:57:18;3.67;;;3.47;;
19595;SDS011;9945;46.010;8.946;2023-06-14T13:59:45;4.00;;;3.60;;
19595;SDS011;9945;46.010;8.946;2023-06-14T14:02:12;4.60;;;4.20;;
19595;SDS011;9945;46.010;8.946;2023-06-14T14:04:40;4.25;;;3.65;;
19595;SDS011;9945;46.010;8.946;2023-06-14T14:07:07;4.75;;;3.80;;
19595;SDS011;9945;46.010;8.946;2023-06-14T14:09:35;4.53;;;3.53;;
19595;SDS011;9945;46.010;8.946;2023-06-14T14:12:04;4.03;;;3.83;;
19595;SDS011;9945;46.010;8.946;2023-06-14T14:14:32;3.90;;;3.60;;
19595;SDS011;9945;46.010;8.946;2023-06-14T14:16:59;4.70;;;4.30;;
19595;SDS011;9945;46.010;8.946;2023-06-14T14:19:25;3.92;;;3.63;;
19595;SDS011;9945;46.010;8.946;2023-06-14T14:21:52;4.28;;;3.97;;
19595;SDS011;9945;46.010;8.946;2023-06-14T14:24:19;6.35;;;4.00;;
19595;SDS011;9945;46.010;8.946;2023-06-14T14:26:47;4.00;;;3.60;;
19595;SDS011;9945;46.010;8.946;2023-06-14T14:29:15;5.60;;;3.38;;
19595;SDS011;9945;46.010;8.946;2023-06-14T14:31:42;5.65;;;3.90;;
19595;SDS011;9945;46.010;8.946;2023-06-14T14:34:09;4.28;;;3.75;;
19595;SDS011;9945;46.010;8.946;2023-06-14T14:36:35;4.78;;;3.40;;
19595;SDS011;9945;46.010;8.946;2023-06-14T14:39:06;5.07;;;3.20;;
19595;SDS011;9945;46.010;8.946;2023-06-14T14:41:33;4.43;;;3.72;;
19595;SDS011;9945;46.010;8.946;2023-06-14T14:44:01;4.43;;;4.10;;
19595;SDS011;9945;46.010;8.946;2023-06-14T14:46:28;3.50;;;3.20;;
19595;SDS011;9945;46.010;8.946;2023-06-14T14:48:55;3.63;;;3.33;;
19595;SDS011;9945;46.010;8.946;2023-06-14T14:51:22;3.97;;;3.40;;
19595;SDS011;9945;46.010;8.946;2023-06-14T14:53:49;4.22;;;3.83;;
19595;SDS011;9945;46.010;8.946;2023-06-14T14:56:16;5.65;;;3.72;;
19595;SDS011;9945;46.010;8.946;2023-06-14T14:58:43;5.57;;;4.20;;
19595;SDS011;9945;46.010;8.946;2023-06-14T15:01:11;5.10;;;3.50;;
19595;SDS011;9945;46.010;8.946;2023-06-14T15:03:38;3.97;;;3.55;;
19595;SDS011;9945;46.010;8.946;2023-06-14T15:06:05;4.68;;;3.90;;
19595;SDS011;9945;46.010;8.946;2023-06-14T15:08:32;6.55;;;4.30;;
19595;SDS011;9945;46.010;8.946;2023-06-14T15:10:59;4.22;;;3.92;;
19595;SDS011;9945;46.010;8.946;2023-06-14T15:13:27;4.57;;;4.20;;